Time;durP1;ratioP1;P1;durP2;ratioP2;P2;SDS_P1;SDS_P2;PMS_P1;PMS_P2;Temp;Humidity;BMP_temperature;BMP_pressure;BME280_temperature;BME280_humidity;BME280_pressure;Samples;Min_cycle;Max_cycle;Signal;HPM_P1;HPM_P2
2022/10/03 00:00:37;;;;;;;22.33;2.28;;;;;;;11.97;89.48;102496.59;5012073;28;20351;-74
2022/10/03 00:03:21;;;;;;;17.25;1.95;;;;;;;11.92;90.22;102501.59;5013603;28;20080;-74
2022/10/03 00:05:50;;;;;;;19.98;2.53;;;;;;;11.86;90.51;102497.66;5013104;28;20492;-76
2022/10/03 00:08:30;;;;;;;23.90;2.17;;;;;;;11.82;90.86;102503.44;5012984;28;20054;-74
2022/10/03 00:11:10;;;;;;;12.32;1.55;;;;;;;11.77;91.04;102503.03;5013612;28;20037;-73
2022/10/03 00:13:53;;;;;;;11.43;1.80;;;;;;;11.72;91.64;102499.97;5013445;28;20029;-74
2022/10/03 00:16:18;;;;;;;25.35;2.60;;;;;;;11.63;91.66;102507.09;5013618;28;20040;-73
2022/10/03 00:18:54;;;;;;;11.32;1.83;;;;;;;11.59;92.40;102505.69;5013784;28;20472;-74
2022/10/03 00:21:59;;;;;;;18.77;2.10;;;;;;;11.53;92.70;102508.97;5013162;28;20552;-73
2022/10/03 00:24:43;;;;;;;21.30;1.92;;;;;;;11.46;93.24;102500.63;5013198;28;20148;-73
2022/10/03 00:27:32;;;;;;;19.88;2.13;;;;;;;11.40;93.69;102501.19;4994067;28;20085;-74
2022/10/03 00:30:15;;;;;;;20.35;2.35;;;;;;;11.34;93.88;102512.56;4976947;28;20026;-72
2022/10/03 00:32:49;;;;;;;19.02;2.42;;;;;;;11.30;94.32;102511.19;4995759;28;20038;-73
2022/10/03 00:35:24;;;;;;;23.13;2.92;;;;;;;11.27;94.33;102522.22;5012641;28;20030;-73
2022/10/03 00:38:17;;;;;;;14.43;1.85;;;;;;;11.24;95.22;102533.31;5012169;28;20062;-74
2022/10/03 00:41:20;;;;;;;14.93;2.33;;;;;;;11.18;95.26;102529.34;4994017;28;20529;-74
2022/10/03 00:44:03;;;;;;;36.75;2.88;;;;;;;11.17;95.88;102533.91;4994154;28;20386;-75
2022/10/03 00:46:46;;;;;;;25.90;2.50;;;;;;;11.14;96.20;102534.19;4992042;28;20418;-74
2022/10/03 00:49:23;;;;;;;19.92;2.22;;;;;;;11.11;96.59;102533.63;5012833;28;20053;-74
2022/10/03 00:52:16;;;;;;;34.07;2.70;;;;;;;11.08;96.39;102539.28;5012788;28;20064;-74
2022/10/03 00:54:47;;;;;;;13.68;2.17;;;;;;;11.05;96.66;102545.81;5012215;28;20296;-74
2022/10/03 00:57:19;;;;;;;22.88;2.15;;;;;;;11.06;96.71;102539.47;4992498;28;20038;-74
2022/10/03 00:59:47;;;;;;;20.25;2.33;;;;;;;11.04;97.18;102538.75;5012537;28;20120;-74
2022/10/03 01:02:38;;;;;;;18.92;3.05;;;;;;;11.03;97.14;102542.41;5013077;28;20125;-74
2022/10/03 01:05:15;;;;;;;15.43;2.15;;;;;;;11.02;97.04;102553.34;4985337;28;20053;-74
2022/10/03 01:08:16;;;;;;;12.48;2.28;;;;;;;10.99;97.35;102544.56;4994608;28;20085;-74
2022/10/03 01:11:07;;;;;;;21.27;2.60;;;;;;;10.97;97.83;102549.22;4987649;28;20423;-73
2022/10/03 01:14:07;;;;;;;19.65;2.72;;;;;;;10.96;97.98;102557.47;5011615;28;20080;-74
2022/10/03 01:16:49;;;;;;;18.67;2.10;;;;;;;10.95;98.12;102553.06;4994647;28;20342;-73
2022/10/03 01:19:26;;;;;;;18.85;1.88;;;;;;;10.97;98.37;102548.38;5012345;28;20339;-74
2022/10/03 01:22:06;;;;;;;15.93;2.30;;;;;;;10.99;98.52;102549.94;4996719;28;20101;-73
2022/10/03 01:24:37;;;;;;;20.85;2.92;;;;;;;11.02;98.50;102546.13;5012433;28;20151;-74
2022/10/03 01:27:09;;;;;;;21.60;2.72;;;;;;;11.03;98.43;102542.41;4978085;28;20453;-74
2022/10/03 01:32:47;;;;;;;14.48;2.13;;;;;;;10.96;98.72;102555.63;5012328;28;20394;-74
2022/10/03 01:35:26;;;;;;;26.15;2.42;;;;;;;10.93;98.70;102557.75;5011351;28;20038;-74
2022/10/03 01:37:58;;;;;;;21.20;2.53;;;;;;;10.89;98.82;102556.31;4994507;28;20033;-74
2022/10/03 01:40:25;;;;;;;26.00;3.92;;;;;;;10.89;98.89;102553.63;5011665;28;20025;-74
2022/10/03 01:43:18;;;;;;;14.17;2.20;;;;;;;10.87;98.89;102553.75;5011113;28;20030;-74
2022/10/03 01:46:04;;;;;;;29.63;4.25;;;;;;;10.85;98.73;102558.47;4994185;28;20025;-73
2022/10/03 01:48:44;;;;;;;14.30;2.10;;;;;;;10.85;99.31;102557.59;5011760;28;20044;-73
2022/10/03 01:51:26;;;;;;;22.73;3.40;;;;;;;10.82;99.58;102557.88;5011373;28;20084;-73
2022/10/03 01:54:15;;;;;;;25.40;2.22;;;;;;;10.82;99.58;102563.25;4993151;28;20064;-74
2022/10/03 01:56:52;;;;;;;15.02;2.38;;;;;;;10.80;99.56;102560.72;4992344;28;20053;-73
2022/10/03 01:59:37;;;;;;;25.08;2.30;;;;;;;10.75;99.45;102552.22;5012037;28;20079;-74
2022/10/03 02:02:20;;;;;;;16.23;2.53;;;;;;;10.76;99.89;102557.44;4999848;28;20047;-73
2022/10/03 02:04:52;;;;;;;14.23;2.10;;;;;;;10.72;100.00;102565.97;4993479;28;20038;-74
2022/10/03 02:07:34;;;;;;;19.17;2.22;;;;;;;10.69;100.00;102567.09;5051039;23;20458;-41
2022/10/03 02:10:06;;;;;;;22.27;3.10;;;;;;;10.67;100.00;102568.25;4994156;28;20031;-41
2022/10/03 02:12:53;;;;;;;17.60;2.40;;;;;;;10.65;100.00;102560.28;4989736;28;20065;-41
2022/10/03 02:15:25;;;;;;;14.00;2.20;;;;;;;10.66;100.00;102563.81;4999928;28;20049;-42
2022/10/03 02:17:57;;;;;;;20.02;2.28;;;;;;;10.69;100.00;102560.84;4972797;28;20081;-41
2022/10/03 02:20:44;;;;;;;24.20;2.90;;;;;;;10.67;100.00;102569.09;4973095;28;20034;-41
2022/10/03 02:23:31;;;;;;;11.13;1.77;;;;;;;10.67;100.00;102562.84;4990313;28;20064;-43
2022/10/03 02:26:28;;;;;;;18.85;2.53;;;;;;;10.70;100.00;102562.56;4991042;28;20042;-41
2022/10/03 02:29:02;;;;;;;17.60;1.95;;;;;;;10.69;100.00;102555.47;4977042;28;20037;-42
2022/10/03 02:31:58;;;;;;;26.83;2.50;;;;;;;10.66;100.00;102566.50;4990637;28;20408;-41
2022/10/03 02:34:45;;;;;;;14.98;2.13;;;;;;;10.62;100.00;102563.25;4991206;28;20034;-42
2022/10/03 02:37:38;;;;;;;21.00;5.05;;;;;;;10.59;100.00;102555.47;4975159;28;20120;-41
2022/10/03 02:40:12;;;;;;;29.23;3.30;;;;;;;10.54;100.00;102563.13;4991975;28;20058;-41
2022/10/03 02:42:56;;;;;;;16.77;2.40;;;;;;;10.50;100.00;102559.84;4993905;28;20031;-41
2022/10/03 02:45:49;;;;;;;13.38;2.30;;;;;;;10.45;100.00;102561.25;4990811;28;20049;-41
2022/10/03 02:48:41;;;;;;;12.13;2.13;;;;;;;10.40;100.00;102568.88;4990581;28;20030;-40
2022/10/03 02:51:10;;;;;;;22.77;2.50;;;;;;;10.35;100.00;102565.75;4990280;28;20127;-41
2022/10/03 02:54:14;;;;;;;16.02;2.40;;;;;;;10.34;100.00;102562.22;4990205;28;20110;-41
2022/10/03 02:56:46;;;;;;;12.63;1.90;;;;;;;10.28;100.00;102569.00;4959790;28;20133;-41
2022/10/03 02:59:25;;;;;;;12.32;2.15;;;;;;;10.27;100.00;102567.31;4979757;28;20113;-41
2022/10/03 03:02:38;;;;;;;22.42;2.78;;;;;;;10.22;100.00;102564.16;4990762;28;20041;-41
2022/10/03 03:05:20;;;;;;;17.88;2.13;;;;;;;10.22;100.00;102564.16;4931825;28;20077;-42
2022/10/03 03:08:23;;;;;;;15.65;2.22;;;;;;;10.24;100.00;102567.56;4971895;28;20046;-41
2022/10/03 03:11:07;;;;;;;11.48;2.15;;;;;;;10.30;100.00;102577.81;4993718;28;20034;-41
2022/10/03 03:13:44;;;;;;;18.25;2.25;;;;;;;10.35;100.00;102574.69;4990937;28;20038;-41
2022/10/03 03:16:13;;;;;;;13.30;2.03;;;;;;;10.43;100.00;102576.72;4976845;28;20038;-41
2022/10/03 03:18:46;;;;;;;16.88;2.63;;;;;;;10.50;100.00;102577.84;4993841;28;20297;-41
2022/10/03 03:21:34;;;;;;;20.25;2.65;;;;;;;10.56;100.00;102577.28;4977060;28;20042;-41
2022/10/03 03:24:22;;;;;;;17.88;2.55;;;;;;;10.63;100.00;102575.72;4976507;28;20031;-41
2022/10/03 03:26:59;;;;;;;;;;;;;;;10.71;100.00;102572.34;4977334;28;20022;-41
2022/10/03 03:29:39;;;;;;;12.52;3.38;;;;;;;10.75;100.00;102577.31;4993777;28;19917;-42
2022/10/03 03:32:30;;;;;;;17.00;2.42;;;;;;;10.80;100.00;102573.34;4976701;28;20085;-41
2022/10/03 03:35:05;;;;;;;11.95;2.20;;;;;;;10.83;100.00;102573.06;4960268;28;20052;-41
2022/10/03 03:37:56;;;;;;;23.05;2.53;;;;;;;10.89;100.00;102577.88;4994381;28;20034;-41
2022/10/03 03:40:59;;;;;;;18.42;2.63;;;;;;;10.95;100.00;102582.69;4975055;28;20102;-41
2022/10/03 03:44:10;;;;;;;17.35;2.60;;;;;;;11.00;100.00;102588.50;4970823;28;20042;-41
2022/10/03 03:46:58;;;;;;;19.30;2.58;;;;;;;11.08;100.00;102577.03;4974888;28;20074;-41
2022/10/03 03:49:36;;;;;;;12.95;2.15;;;;;;;11.10;100.00;102581.28;4976206;28;20260;-42
2022/10/03 03:52:29;;;;;;;19.00;2.05;;;;;;;11.17;100.00;102576.19;4994109;28;20049;-41
2022/10/03 03:55:05;;;;;;;21.67;2.13;;;;;;;11.17;100.00;102577.03;4974059;28;20030;-41
2022/10/03 03:58:03;;;;;;;14.32;2.20;;;;;;;11.18;100.00;102572.47;4993540;28;20077;-41
2022/10/03 04:00:51;;;;;;;18.27;2.50;;;;;;;11.16;100.00;102586.09;4966267;28;20072;-41
2022/10/03 04:03:17;;;;;;;19.65;3.40;;;;;;;11.12;100.00;102584.69;4959663;28;20399;-41
2022/10/03 04:05:52;;;;;;;12.93;2.88;;;;;;;11.09;100.00;102584.97;4992684;28;20561;-41
2022/10/03 04:08:47;;;;;;;22.42;2.45;;;;;;;11.06;100.00;102579.88;4976027;28;20113;-42
2022/10/03 04:11:31;;;;;;;13.77;2.28;;;;;;;11.03;100.00;102579.28;4992727;28;20057;-42
2022/10/03 04:13:59;;;;;;;18.98;2.50;;;;;;;11.00;100.00;102580.41;4992760;28;20493;-41
2022/10/03 04:19:47;;;;;;;15.10;2.88;;;;;;;10.92;100.00;102591.06;4993319;28;20076;-41
2022/10/03 04:22:45;;;;;;;12.85;2.08;;;;;;;10.86;100.00;102583.56;4993590;28;20030;-41
2022/10/03 04:25:16;;;;;;;;;;;;;;;10.82;100.00;102587.50;4974726;28;20397;-41
2022/10/03 04:28:04;;;;;;;16.90;2.75;;;;;;;10.74;100.00;102591.78;4990910;28;19925;-41
2022/10/03 04:31:05;;;;;;;30.95;4.15;;;;;;;10.69;100.00;102595.84;4992874;28;20053;-41
2022/10/03 04:33:40;;;;;;;22.10;3.80;;;;;;;10.67;100.00;102590.63;4990857;28;20375;-41
2022/10/03 04:36:30;;;;;;;33.88;3.72;;;;;;;10.66;100.00;102599.66;4975479;28;20026;-41
2022/10/03 04:39:23;;;;;;;27.73;2.95;;;;;;;10.67;100.00;102601.41;4992899;28;20041;-43
2022/10/03 04:42:06;;;;;;;22.02;2.95;;;;;;;10.68;100.00;102603.09;4975481;28;20097;-41
2022/10/03 04:44:31;;;;;;;16.40;3.45;;;;;;;10.73;100.00;102608.91;4992835;28;20026;-41
2022/10/03 04:47:14;;;;;;;19.10;3.22;;;;;;;10.79;100.00;102602.09;4991879;28;20541;-40
2022/10/03 04:49:52;;;;;;;9.93;2.65;;;;;;;10.82;100.00;102598.28;4993073;28;20502;-42
2022/10/03 04:52:27;;;;;;;27.25;2.70;;;;;;;10.84;100.00;102596.31;4976116;28;20041;-41
2022/10/03 04:54:59;;;;;;;29.77;3.20;;;;;;;10.84;100.00;102605.22;4985430;28;20501;-41
2022/10/03 04:57:27;;;;;;;16.35;4.22;;;;;;;10.84;100.00;102597.16;4992880;28;20497;-41
2022/10/03 05:00:40;;;;;;;17.40;3.33;;;;;;;10.80;100.00;102597.59;4992285;28;20042;-42
2022/10/03 05:03:33;;;;;;;16.77;2.92;;;;;;;10.73;100.00;102598.13;4956148;28;20050;-41
2022/10/03 05:06:05;;;;;;;23.38;3.70;;;;;;;10.67;100.00;102598.69;4968301;28;20428;-41
2022/10/03 05:08:46;;;;;;;26.50;3.22;;;;;;;10.64;100.00;102598.97;4977080;28;20408;-41
2022/10/03 05:11:19;;;;;;;20.35;3.88;;;;;;;10.62;100.00;102598.28;4991995;28;20031;-41
2022/10/03 05:14:03;;;;;;;25.23;3.45;;;;;;;10.55;100.00;102597.13;4991505;28;20096;-41
2022/10/03 05:17:05;;;;;;;31.60;4.85;;;;;;;10.50;100.00;102589.44;4991327;28;20469;-42
2022/10/03 05:19:45;;;;;;;23.10;3.65;;;;;;;10.43;100.00;102601.78;4946630;28;20055;-41
2022/10/03 05:22:12;;;;;;;28.27;3.45;;;;;;;10.41;100.00;102595.66;4981029;28;20038;-41
2022/10/03 05:24:52;;;;;;;18.15;2.97;;;;;;;10.39;100.00;102602.19;4992583;28;20034;-41
2022/10/03 05:27:18;;;;;;;40.03;3.80;;;;;;;10.37;100.00;102593.38;4974184;28;20046;-41
2022/10/03 05:29:47;;;;;;;22.92;4.00;;;;;;;10.37;100.00;102596.06;4994912;28;20497;-41
2022/10/03 05:32:15;;;;;;;19.48;4.68;;;;;;;10.37;100.00;102601.47;4981512;28;20073;-41
2022/10/03 05:34:59;;;;;;;25.02;3.47;;;;;;;10.40;100.00;102603.88;4997200;28;20043;-40
2022/10/03 05:37:33;;;;;;;27.15;4.03;;;;;;;10.38;100.00;102600.50;4998405;28;20045;-40
2022/10/03 05:40:03;;;;;;;41.25;3.72;;;;;;;10.40;100.00;102598.50;5000104;28;20022;-40
2022/10/03 05:42:54;;;;;;;21.67;3.40;;;;;;;10.43;100.00;102609.00;4978844;28;20167;-41
2022/10/03 05:45:38;;;;;;;19.08;3.25;;;;;;;10.46;100.00;102612.25;4999529;28;20476;-41
2022/10/03 05:48:22;;;;;;;30.25;4.20;;;;;;;10.49;100.00;102609.28;4998152;28;20057;-41
2022/10/03 05:51:10;;;;;;;30.67;3.55;;;;;;;10.52;100.00;102605.47;4989275;28;20089;-41
2022/10/03 05:53:47;;;;;;;16.33;3.70;;;;;;;10.55;100.00;102607.88;4997435;28;20030;-41
2022/10/03 05:57:00;;;;;;;12.45;2.90;;;;;;;10.57;100.00;102614.00;4984555;28;20045;-41
2022/10/03 06:00:00;;;;;;;28.95;4.00;;;;;;;10.58;100.00;102615.69;4940602;28;20035;-41
2022/10/03 06:02:37;;;;;;;21.45;3.55;;;;;;;10.64;100.00;102615.16;4991798;28;20043;-41
2022/10/03 06:05:31;;;;;;;22.73;3.85;;;;;;;10.72;100.00;102620.69;4986036;28;20129;-42
2022/10/03 06:08:24;;;;;;;19.58;3.45;;;;;;;10.81;100.00;102620.81;4988515;28;20061;-41
2022/10/03 06:11:04;;;;;;;23.98;4.10;;;;;;;10.89;100.00;102620.97;4983775;28;20022;-41
2022/10/03 06:13:50;;;;;;;26.92;3.60;;;;;;;10.93;100.00;102625.94;4993530;28;20421;-41
2022/10/03 06:16:45;;;;;;;18.67;4.13;;;;;;;10.93;100.00;102617.03;4973334;28;20057;-41
2022/10/03 06:19:31;;;;;;;26.42;5.10;;;;;;;11.02;100.00;102626.94;4960008;28;20114;-41
2022/10/03 06:22:34;;;;;;;28.70;3.90;;;;;;;11.11;100.00;102620.72;4994892;28;20058;-41
2022/10/03 06:25:37;;;;;;;20.27;6.18;;;;;;;11.22;100.00;102627.81;4996657;28;20033;-41
2022/10/03 06:28:31;;;;;;;26.30;6.63;;;;;;;11.26;100.00;102618.41;4997349;28;20041;-41
2022/10/03 06:31:12;;;;;;;29.60;5.07;;;;;;;11.33;100.00;102624.09;4979178;28;20037;-41
2022/10/03 06:34:16;;;;;;;34.65;4.78;;;;;;;11.40;100.00;102631.47;4978411;28;20026;-41
2022/10/03 06:36:52;;;;;;;28.00;5.15;;;;;;;11.47;100.00;102637.13;4950912;28;20050;-41
2022/10/03 06:39:58;;;;;;;28.48;4.85;;;;;;;11.53;100.00;102636.56;4996059;28;20034;-40
2022/10/03 06:42:48;;;;;;;36.95;6.20;;;;;;;11.59;100.00;102640.53;4972650;28;20085;-40
2022/10/03 06:45:51;;;;;;;26.70;5.40;;;;;;;11.68;100.00;102645.03;4992549;28;20039;-41
2022/10/03 06:48:26;;;;;;;38.20;6.68;;;;;;;11.74;100.00;102641.78;4995848;28;20041;-42
2022/10/03 06:50:58;;;;;;;41.20;5.45;;;;;;;11.77;100.00;102643.31;4990673;28;20049;-41
2022/10/03 06:53:38;;;;;;;38.63;5.25;;;;;;;11.83;100.00;102651.69;4968093;28;20101;-40
2022/10/03 06:56:07;;;;;;;38.97;5.43;;;;;;;11.82;100.00;102646.44;4979091;28;20540;-42
2022/10/03 06:58:47;;;;;;;32.53;6.72;;;;;;;11.89;100.00;102644.88;4996256;28;20027;-41
2022/10/03 07:01:44;;;;;;;29.10;4.68;;;;;;;11.97;100.00;102647.69;4993486;28;20036;-40
2022/10/03 07:04:38;;;;;;;24.25;4.60;;;;;;;12.05;100.00;102647.81;4985188;28;20038;-41
2022/10/03 07:07:21;;;;;;;23.45;4.60;;;;;;;12.12;100.00;102655.34;4996460;28;20049;-41
2022/10/03 07:09:59;;;;;;;21.95;5.07;;;;;;;12.18;100.00;102663.69;4997255;28;20046;-39
2022/10/03 07:12:46;;;;;;;29.25;4.70;;;;;;;12.26;100.00;102671.03;4996959;28;20093;-40
2022/10/03 07:15:36;;;;;;;16.25;4.10;;;;;;;12.33;100.00;102661.34;4997282;28;20077;-41
2022/10/03 07:18:16;;;;;;;28.42;4.40;;;;;;;12.40;100.00;102667.88;4994080;28;20556;-42
2022/10/03 07:21:10;;;;;;;19.67;5.38;;;;;;;12.48;100.00;102667.09;4997667;28;20101;-41
2022/10/03 07:24:07;;;;;;;46.15;7.57;;;;;;;12.64;100.00;102671.88;4996069;28;20394;-41
2022/10/03 07:26:50;;;;;;;28.33;6.18;;;;;;;12.68;100.00;102673.25;4996802;28;20053;-41
2022/10/03 07:29:37;;;;;;;29.85;6.18;;;;;;;12.76;100.00;102669.78;4996163;28;20477;-41
2022/10/03 07:32:28;;;;;;;33.40;5.80;;;;;;;12.88;100.00;102666.72;4995015;28;20038;-41
2022/10/03 07:38:56;;;;;;;29.00;5.47;;;;;;;12.98;100.00;102665.81;4996826;28;20300;-41
2022/10/03 07:38:58;;;;;;;24.50;5.30;;;;;;;13.13;100.00;102661.56;4989954;28;20070;-42
2022/10/03 07:41:56;;;;;;;28.65;4.88;;;;;;;13.38;100.00;102663.53;4995730;28;20283;-41
2022/10/03 07:44:58;;;;;;;18.48;4.68;;;;;;;13.51;98.64;102662.28;4991174;28;20413;-43
2022/10/03 07:48:01;;;;;;;23.77;4.93;;;;;;;13.82;97.14;102660.84;4993009;28;20566;-41
2022/10/03 07:50:35;;;;;;;25.60;3.88;;;;;;;14.20;94.30;102663.25;4996547;28;20445;-42
2022/10/03 07:53:22;;;;;;;30.15;4.80;;;;;;;14.83;91.38;102653.88;5000743;28;20035;-42
2022/10/03 07:56:05;;;;;;;19.13;3.75;;;;;;;15.76;89.35;102668.00;5001280;28;20113;-41
2022/10/03 07:58:30;;;;;;;25.17;4.38;;;;;;;16.96;82.50;102673.38;4984748;28;20026;-41
2022/10/03 08:01:13;;;;;;;19.67;4.05;;;;;;;17.85;74.50;102676.44;5000840;28;20117;-41
2022/10/03 08:04:08;;;;;;;23.80;3.08;;;;;;;18.10;69.83;102681.59;4999975;28;20030;-41
2022/10/03 08:06:42;;;;;;;29.58;3.80;;;;;;;18.02;69.71;102678.97;4982502;28;20158;-41
2022/10/03 08:09:16;;;;;;;23.23;4.05;;;;;;;18.01;68.87;102680.84;4983096;28;20034;-41
2022/10/03 08:12:09;;;;;;;22.45;4.40;;;;;;;19.27;68.83;102687.91;5000368;28;20038;-41
2022/10/03 08:14:45;;;;;;;18.27;3.00;;;;;;;20.18;61.40;102687.19;4998985;28;20034;-40
2022/10/03 08:17:29;;;;;;;18.98;3.00;;;;;;;20.31;60.74;102689.16;4982563;28;20437;-41
2022/10/03 08:20:00;;;;;;;16.85;3.40;;;;;;;20.70;59.20;102680.31;5000323;28;20039;-41
2022/10/03 08:22:49;;;;;;;28.00;3.38;;;;;;;20.55;57.89;102696.88;4997873;28;20044;-41
2022/10/03 08:25:16;;;;;;;19.88;3.53;;;;;;;21.00;57.47;102690.94;4959311;28;20042;-41
2022/10/03 08:28:09;;;;;;;21.98;3.65;;;;;;;21.30;55.25;102685.09;4998644;28;20030;-41
2022/10/03 08:31:10;;;;;;;24.15;3.63;;;;;;;20.34;57.85;102691.47;4995865;28;20128;-40
2022/10/03 08:33:47;;;;;;;24.45;4.07;;;;;;;19.67;58.99;102695.66;4959953;28;20108;-40
2022/10/03 08:36:22;;;;;;;;;;;;;;;19.38;61.72;102693.88;4989310;28;20116;-41
2022/10/03 08:39:08;;;;;;;19.33;3.78;;;;;;;19.78;62.25;102692.38;4984181;28;20268;-40
2022/10/03 08:41:55;;;;;;;13.50;2.95;;;;;;;21.01;58.53;102700.81;4998445;28;20114;-41
2022/10/03 08:44:39;;;;;;;20.25;3.28;;;;;;;21.57;57.16;102692.31;4997669;28;20061;-40
2022/10/03 08:47:16;;;;;;;17.15;3.10;;;;;;;22.64;53.57;102690.22;4997229;28;20054;-42
2022/10/03 08:49:57;;;;;;;;;;;;;;;21.39;53.50;102683.88;4997011;28;20069;-40
2022/10/03 08:52:38;;;;;;;18.35;2.90;;;;;;;20.35;58.04;102680.34;4997429;28;19917;-41
2022/10/03 08:55:41;;;;;;;19.42;3.60;;;;;;;19.23;60.35;102680.31;4996402;28;20150;-40
2022/10/03 08:58:28;;;;;;;18.60;2.72;;;;;;;18.61;63.93;102682.50;4995895;28;20583;-41
2022/10/03 09:01:12;;;;;;;13.00;2.87;;;;;;;17.94;67.35;102677.19;4996411;28;20021;-41
2022/10/03 09:03:40;;;;;;;18.48;3.40;;;;;;;17.46;69.18;102682.88;4996447;28;20061;-41
2022/10/03 09:06:07;;;;;;;17.95;3.13;;;;;;;16.86;72.45;102680.91;4996595;28;20062;-41
2022/10/03 09:08:56;;;;;;;20.98;3.05;;;;;;;16.52;75.13;102683.94;4996650;28;20062;-41
2022/10/03 09:11:46;;;;;;;15.93;3.13;;;;;;;16.49;76.30;102684.28;4995919;28;20034;-41
2022/10/03 09:14:44;;;;;;;26.42;3.75;;;;;;;16.32;78.48;102673.47;4996065;28;20416;-41
2022/10/03 09:17:31;;;;;;;20.23;3.55;;;;;;;16.19;79.53;102690.34;4981283;28;20085;-41
2022/10/03 09:20:18;;;;;;;24.10;3.97;;;;;;;15.99;80.52;102679.00;4998038;28;20030;-41
2022/10/03 09:22:57;;;;;;;25.73;3.83;;;;;;;15.79;80.98;102673.09;4980374;28;20473;-40
2022/10/03 09:25:25;;;;;;;23.55;3.63;;;;;;;15.73;82.38;102673.78;4997818;28;20040;-40
2022/10/03 09:27:50;;;;;;;23.73;3.00;;;;;;;15.65;83.14;102675.63;4997637;28;20034;-39
2022/10/03 09:30:19;;;;;;;30.98;3.25;;;;;;;15.64;83.75;102684.78;4980739;28;20021;-41
2022/10/03 09:33:15;;;;;;;28.52;4.22;;;;;;;15.57;84.16;102687.34;4977755;28;20026;-40
2022/10/03 09:36:06;;;;;;;20.67;3.40;;;;;;;15.62;84.69;102686.84;4990543;28;20098;-40
2022/10/03 09:38:50;;;;;;;17.08;3.25;;;;;;;15.74;85.53;102685.47;4998409;28;20288;-40
2022/10/03 09:41:53;;;;;;;22.50;3.60;;;;;;;15.80;85.20;102682.09;4997658;28;20030;-40
2022/10/03 09:44:27;;;;;;;19.60;3.80;;;;;;;15.86;84.81;102675.97;4995965;28;20156;-40
2022/10/03 09:50:18;;;;;;;22.75;3.72;;;;;;;15.85;81.85;102673.41;4996191;28;20130;-41
2022/10/03 09:53:01;;;;;;;19.70;3.47;;;;;;;15.85;81.72;102677.00;4996189;28;20061;-42
2022/10/03 09:56:05;;;;;;;16.45;2.85;;;;;;;15.91;82.85;102668.16;4997031;28;20390;-41
2022/10/03 09:58:30;;;;;;;30.27;3.35;;;;;;;15.91;82.75;102670.88;4980086;28;20030;-40
2022/10/03 10:01:20;;;;;;;20.33;3.20;;;;;;;15.73;82.12;102667.50;4996996;28;20374;-40
2022/10/03 10:03:45;;;;;;;35.83;3.80;;;;;;;15.75;83.15;102673.63;4995292;28;20034;-41
2022/10/03 10:06:41;;;;;;;26.13;3.60;;;;;;;15.83;83.46;102668.19;4985368;28;20057;-41
2022/10/03 10:09:31;;;;;;;21.70;3.45;;;;;;;15.90;83.67;102663.72;4994741;28;20070;-40
2022/10/03 10:12:18;;;;;;;26.70;4.13;;;;;;;15.90;83.60;102669.16;4991980;28;20435;-40
2022/10/03 10:14:58;;;;;;;32.63;3.33;;;;;;;15.78;83.62;102660.53;4992340;28;20275;-42
2022/10/03 10:17:58;;;;;;;22.83;3.58;;;;;;;15.77;84.21;102667.00;4997245;28;20045;-40
2022/10/03 10:20:48;;;;;;;31.20;3.95;;;;;;;15.73;84.38;102662.06;4998386;28;20077;-40
2022/10/03 10:23:31;;;;;;;27.65;3.83;;;;;;;15.63;84.49;102672.22;4979500;28;20076;-41
2022/10/03 10:26:28;;;;;;;28.08;3.72;;;;;;;15.67;85.35;102666.31;4997413;28;20092;-41
2022/10/03 10:29:15;;;;;;;22.33;3.10;;;;;;;15.63;84.68;102664.09;4996878;28;20030;-41
2022/10/03 10:31:53;;;;;;;29.75;4.25;;;;;;;15.64;85.28;102665.78;4997410;28;20111;-39
2022/10/03 10:34:37;;;;;;;46.22;4.22;;;;;;;15.61;85.87;102664.25;4996711;28;20027;-42
2022/10/03 10:37:21;;;;;;;30.10;4.45;;;;;;;15.46;84.11;102676.81;4995581;28;20068;-41
2022/10/03 10:40:15;;;;;;;24.85;3.03;;;;;;;15.52;84.69;102660.69;4996961;28;20398;-40
2022/10/03 10:42:59;;;;;;;27.75;3.80;;;;;;;15.52;85.60;102666.13;4990701;28;20038;-40
2022/10/03 10:46:03;;;;;;;24.55;2.97;;;;;;;15.50;86.18;102673.59;4997434;28;20046;-40
2022/10/03 10:48:56;;;;;;;20.77;2.92;;;;;;;15.44;84.71;102668.00;4978642;28;20157;-41
2022/10/03 10:51:56;;;;;;;27.55;3.20;;;;;;;15.44;84.90;102660.72;4992616;28;20297;-41
2022/10/03 10:54:47;;;;;;;32.17;3.70;;;;;;;15.46;84.91;102661.38;4997156;28;20217;-41
2022/10/03 10:57:25;;;;;;;28.40;3.58;;;;;;;15.44;84.41;102668.84;4990903;28;20034;-42
2022/10/03 11:00:11;;;;;;;;;;;;;;;15.42;83.68;102670.03;4998160;28;20177;-39
2022/10/03 11:02:45;;;;;;;27.40;3.75;;;;;;;15.50;83.60;102672.75;4973768;28;20439;-39
2022/10/03 11:05:50;;;;;;;30.38;4.13;;;;;;;15.53;83.06;102665.13;4997907;28;20018;-40
2022/10/03 11:08:33;;;;;;;31.38;4.07;;;;;;;15.49;81.21;102671.91;4969364;28;20050;-39
2022/10/03 11:11:36;;;;;;;23.42;3.92;;;;;;;15.45;81.45;102675.94;4998317;28;20027;-40
2022/10/03 11:14:27;;;;;;;24.85;3.72;;;;;;;15.44;81.16;102668.84;4996179;28;20113;-41
2022/10/03 11:17:14;;;;;;;30.42;4.10;;;;;;;15.42;80.92;102670.88;4996717;28;20110;-40
2022/10/03 11:19:42;;;;;;;;;;;;;;;15.35;80.86;102676.16;4994028;28;20042;-40
2022/10/03 11:22:17;;;;;;;28.83;3.42;;;;;;;15.30;81.08;102669.53;4978833;28;19924;-39
2022/10/03 11:24:51;;;;;;;18.02;2.90;;;;;;;15.36;82.28;102674.28;4986206;28;20046;-37
2022/10/03 11:27:22;;;;;;;19.33;3.00;;;;;;;15.35;81.98;102669.88;5001273;28;20034;-40
2022/10/03 11:30:03;;;;;;;25.75;3.80;;;;;;;15.32;82.03;102659.34;5003648;28;20046;-39
2022/10/03 11:32:53;;;;;;;22.00;3.67;;;;;;;15.30;82.31;102661.41;5001705;28;20041;-40
2022/10/03 11:35:37;;;;;;;24.38;3.78;;;;;;;15.25;82.54;102658.34;5001553;28;20117;-40
2022/10/03 11:38:08;;;;;;;38.88;5.10;;;;;;;15.30;82.78;102659.53;5005301;28;20111;-41
2022/10/03 11:40:57;;;;;;;27.88;5.57;;;;;;;15.34;82.72;102658.16;5023112;28;20137;-40
2022/10/03 11:44:18;;;;;;;21.42;4.32;;;;;;;15.31;82.81;102654.94;5001362;28;20037;-41
2022/10/03 11:46:59;;;;;;;29.33;5.55;;;;;;;15.24;83.27;102657.47;4958989;29;20090;-40
2022/10/03 11:49:39;;;;;;;28.75;4.45;;;;;;;15.20;84.07;102660.72;4960243;28;20072;-41
2022/10/03 11:52:29;;;;;;;23.98;4.18;;;;;;;15.26;84.65;102649.16;4985362;28;20042;-41
2022/10/03 11:55:21;;;;;;;29.98;5.07;;;;;;;15.28;84.48;102653.41;4999715;28;20045;-41
2022/10/03 11:58:08;;;;;;;28.45;4.38;;;;;;;15.37;85.18;102652.38;4996788;28;20497;-40
2022/10/03 12:00:35;;;;;;;29.40;5.73;;;;;;;15.42;85.22;102643.75;4984390;28;20034;-41
2022/10/03 12:03:12;;;;;;;24.27;4.95;;;;;;;15.48;85.17;102648.50;4983016;28;20312;-41
2022/10/03 12:05:44;;;;;;;32.35;5.78;;;;;;;15.52;84.63;102655.28;4982960;28;20026;-40
2022/10/03 12:11:17;;;;;;;38.85;4.93;;;;;;;15.60;85.30;102646.28;4989788;28;20177;-41
2022/10/03 12:13:59;;;;;;;47.33;6.45;;;;;;;15.55;85.08;102649.50;4988741;28;20038;-41
2022/10/03 12:16:28;;;;;;;35.90;5.50;;;;;;;15.63;85.70;102651.34;4997883;28;20026;-40
2022/10/03 12:19:07;;;;;;;36.83;5.30;;;;;;;15.59;84.87;102650.88;4985406;28;20037;-41
2022/10/03 12:21:42;;;;;;;29.40;4.95;;;;;;;15.54;84.11;102641.53;4981828;28;20065;-41
2022/10/03 12:24:26;;;;;;;26.10;5.30;;;;;;;15.53;84.04;102635.28;4976744;28;20045;-41
2022/10/03 12:27:04;;;;;;;36.15;5.20;;;;;;;15.58;84.62;102643.72;4979114;28;20097;-42
2022/10/03 12:29:33;;;;;;;35.58;4.90;;;;;;;15.64;84.94;102641.34;4999303;28;20031;-40
2022/10/03 12:32:15;;;;;;;36.90;5.85;;;;;;;15.62;84.44;102637.97;4997453;28;20434;-40
2022/10/03 12:35:06;;;;;;;43.45;5.07;;;;;;;15.55;83.82;102638.66;4997758;28;20038;-40
2022/10/03 12:37:40;;;;;;;41.95;5.38;;;;;;;15.48;83.85;102637.66;4979168;28;20038;-41
2022/10/03 12:40:11;;;;;;;27.70;5.40;;;;;;;15.53;84.58;102640.69;4981254;28;20105;-41
2022/10/03 12:42:55;;;;;;;34.60;4.30;;;;;;;15.55;84.01;102633.22;4997109;28;20056;-42